createdAt,value
2023-03-07T00:03:12.353Z,61.18
2023-03-07T00:08:13.848Z,60.78
2023-03-07T00:13:15.316Z,61.80
2023-03-07T00:18:16.781Z,61.38
2023-03-07T00:23:18.249Z,61.05
2023-03-07T00:28:19.717Z,61.86
2023-03-07T00:33:21.276Z,60.58
2023-03-07T00:38:22.838Z,60.31
2023-03-07T00:43:24.356Z,60.87
2023-03-07T00:48:25.890Z,60.28
2023-03-07T00:53:27.355Z,59.54
2023-03-07T00:58:30.560Z,58.91
2023-03-07T01:03:32.438Z,55.70
2023-03-07T01:08:34.053Z,54.74
2023-03-07T01:13:35.768Z,54.96
2023-03-07T01:18:37.300Z,55.77
2023-03-07T01:23:38.782Z,56.77
2023-03-07T01:28:40.257Z,54.75
2023-03-07T01:33:41.754Z,55.71
2023-03-07T01:38:43.259Z,54.91
2023-03-07T01:43:44.718Z,56.06
2023-03-07T01:49:07.279Z,53.64
2023-03-07T01:54:09.294Z,52.08
2023-03-07T01:59:10.776Z,51.57
2023-03-07T02:04:21.937Z,50.00
2023-03-07T02:09:23.451Z,51.33
2023-03-07T02:14:24.913Z,51.90
2023-03-07T02:19:36.675Z,50.49
2023-03-07T02:24:54.862Z,52.91
2023-03-07T02:29:56.314Z,53.35
2023-03-07T02:34:58.124Z,53.92
2023-03-07T02:40:01.240Z,53.96
2023-03-07T02:45:04.335Z,55.38
2023-03-07T02:50:06.223Z,56.93
2023-03-07T02:55:08.223Z,52.28
2023-03-07T03:00:11.366Z,52.52
2023-03-07T03:05:12.862Z,53.99
2023-03-07T03:10:14.334Z,52.56
2023-03-07T03:15:15.795Z,55.63
2023-03-07T03:20:19.126Z,57.22
2023-03-07T03:25:23.092Z,55.02
2023-03-07T03:30:24.718Z,56.03
2023-03-07T03:35:26.175Z,57.81
2023-03-07T03:40:27.634Z,56.24
2023-03-07T03:45:29.113Z,54.12
2023-03-07T03:50:30.575Z,55.47
2023-03-07T03:55:32.052Z,55.93
2023-03-07T04:00:33.516Z,55.56
2023-03-07T04:05:35.001Z,56.27
2023-03-07T04:10:36.512Z,60.89
2023-03-07T04:15:37.999Z,60.39
2023-03-07T04:20:39.731Z,62.51
2023-03-07T04:25:41.209Z,61.68
2023-03-07T04:30:43.994Z,60.32
2023-03-07T04:35:46.076Z,60.73
2023-03-07T04:40:47.589Z,59.99
2023-03-07T04:45:49.090Z,57.86
2023-03-07T04:50:51.089Z,59.18
2023-03-07T04:56:00.217Z,59.26
2023-03-07T05:01:02.221Z,60.55
2023-03-07T05:06:05.454Z,60.26
2023-03-07T05:11:07.149Z,60.07
2023-03-07T05:16:08.657Z,60.68
2023-03-07T05:21:10.137Z,61.28
2023-03-07T05:26:11.600Z,60.15
2023-03-07T05:31:13.177Z,59.17
2023-03-07T05:36:15.154Z,58.79
2023-03-07T05:41:17.333Z,58.59
2023-03-07T05:46:18.873Z,58.29
2023-03-07T05:51:20.362Z,58.46
2023-03-07T05:56:21.838Z,57.15
2023-03-07T06:01:23.292Z,58.60
2023-03-07T06:06:24.770Z,57.84
2023-03-07T06:11:26.340Z,57.99
2023-03-07T06:16:27.860Z,56.52
2023-03-07T06:21:30.402Z,58.01
2023-03-07T06:26:31.853Z,56.98
2023-03-07T06:31:33.348Z,56.05
2023-03-07T06:36:34.933Z,58.14
2023-03-07T06:41:36.385Z,55.53
2023-03-07T06:46:37.844Z,54.75
2023-03-07T06:51:39.313Z,54.43
2023-03-07T06:56:40.787Z,54.54
2023-03-07T07:01:42.273Z,53.35
2023-03-07T07:06:43.742Z,51.76
2023-03-07T07:11:45.194Z,53.79
2023-03-07T07:16:46.743Z,52.61
2023-03-07T07:21:48.242Z,51.52
2023-03-07T07:26:49.709Z,53.61
2023-03-07T07:31:51.337Z,53.63
2023-03-07T07:36:53.160Z,55.51
2023-03-07T07:41:54.660Z,57.27
2023-03-07T07:46:56.126Z,55.76
2023-03-07T07:51:57.610Z,50.49
2023-03-07T07:56:59.082Z,51.11
2023-03-07T08:02:00.904Z,52.31
2023-03-07T08:07:02.390Z,52.77
2023-03-07T08:12:04.031Z,53.06
2023-03-07T08:17:05.553Z,53.93
2023-03-07T08:22:07.101Z,47.71
2023-03-07T08:27:09.293Z,46.25
2023-03-07T08:32:12.128Z,49.11
2023-03-07T08:37:13.718Z,45.85
2023-03-07T08:42:15.170Z,44.45
2023-03-07T08:47:16.624Z,42.54
2023-03-07T08:52:18.096Z,42.31
2023-03-07T08:57:19.562Z,43.37
2023-03-07T09:02:21.036Z,41.32
2023-03-07T09:07:22.486Z,41.26
2023-03-07T09:12:24.016Z,40.21
2023-03-07T09:17:25.476Z,40.62
2023-03-07T09:22:27.576Z,41.36
2023-03-07T09:27:29.050Z,42.57
2023-03-07T09:32:33.027Z,41.33
2023-03-07T09:37:34.623Z,41.28
2023-03-07T09:42:45.816Z,37.49
2023-03-07T09:47:57.305Z,40.63
2023-03-07T09:53:01.419Z,41.97
2023-03-07T09:58:07.357Z,39.74
2023-03-07T10:03:26.712Z,40.33
2023-03-07T10:08:32.255Z,38.17
2023-03-07T10:14:10.930Z,38.87
2023-03-07T10:19:49.853Z,39.58
2023-03-07T10:25:11.527Z,40.00
2023-03-07T10:30:17.947Z,37.23
2023-03-07T10:35:21.538Z,38.72
2023-03-07T10:40:30.116Z,40.93
2023-03-07T10:45:32.609Z,40.03
2023-03-07T10:50:55.142Z,38.84
2023-03-07T10:56:13.841Z,36.78
2023-03-07T11:01:19.549Z,39.75
2023-03-07T11:06:32.593Z,38.94
2023-03-07T11:11:34.042Z,38.76
2023-03-07T11:16:59.084Z,38.08
2023-03-07T11:22:02.199Z,38.39
2023-03-07T11:27:03.909Z,37.08
2023-03-07T11:32:18.255Z,36.55
2023-03-07T11:37:27.307Z,37.31
2023-03-07T11:42:34.985Z,37.41
2023-03-07T11:48:17.275Z,37.98
2023-03-07T11:53:38.095Z,37.52
2023-03-07T11:58:45.887Z,37.45
2023-03-07T12:04:13.104Z,38.84
2023-03-07T12:09:23.438Z,39.11
2023-03-07T12:14:49.329Z,40.06
2023-03-07T12:19:59.444Z,40.40
2023-03-07T12:25:32.111Z,41.75
2023-03-07T12:31:10.704Z,40.02
2023-03-07T12:36:31.169Z,38.65
2023-03-07T12:41:50.192Z,37.56
2023-03-07T12:46:58.292Z,38.03
2023-03-07T12:52:00.621Z,37.34
2023-03-07T12:57:07.803Z,34.62
2023-03-07T13:02:20.127Z,35.51
2023-03-07T13:07:24.923Z,36.05
2023-03-07T13:12:33.064Z,36.08
2023-03-07T13:17:38.100Z,37.13
2023-03-07T13:22:39.452Z,43.00
2023-03-07T13:27:40.733Z,43.90
2023-03-07T13:32:48.211Z,42.75
2023-03-07T13:37:58.808Z,38.68
2023-03-07T13:43:00.338Z,40.18
2023-03-07T13:48:01.794Z,41.38
2023-03-07T13:53:08.141Z,38.40
2023-03-07T13:58:31.786Z,39.85
2023-03-07T14:03:36.928Z,41.67
2023-03-07T14:08:38.455Z,41.75
2023-03-07T14:13:51.638Z,39.23
2023-03-07T14:19:14.958Z,40.48
2023-03-07T14:24:31.405Z,39.03
2023-03-07T14:29:33.008Z,37.07
2023-03-07T14:34:35.221Z,37.85
2023-03-07T14:39:55.198Z,38.74
2023-03-07T14:45:19.914Z,39.66
2023-03-07T14:50:28.618Z,38.01
2023-03-07T14:55:39.046Z,37.86
2023-03-07T15:00:40.520Z,36.27
2023-03-07T15:05:49.770Z,45.84
2023-03-07T15:10:55.732Z,46.38
2023-03-07T15:15:59.658Z,43.79
2023-03-07T15:21:01.165Z,38.20
2023-03-07T15:26:04.971Z,40.19
2023-03-07T15:31:06.838Z,39.62
2023-03-07T15:36:11.444Z,39.40
2023-03-07T15:41:29.806Z,37.15
2023-03-07T15:46:31.307Z,38.85
2023-03-07T15:51:36.769Z,38.37
2023-03-07T15:56:38.217Z,39.47
2023-03-07T16:01:39.706Z,40.80
2023-03-07T16:06:42.444Z,42.11
2023-03-07T16:11:44.585Z,40.01
2023-03-07T16:16:46.269Z,39.77
2023-03-07T16:21:47.765Z,38.55
2023-03-07T16:26:49.241Z,39.87
2023-03-07T16:31:50.820Z,40.80
2023-03-07T16:36:52.342Z,38.98
2023-03-07T16:41:53.789Z,37.86
2023-03-07T16:46:57.822Z,38.21
2023-03-07T16:52:05.510Z,41.47
2023-03-07T16:57:12.670Z,40.63
2023-03-07T17:02:18.561Z,43.59
2023-03-07T17:07:23.389Z,43.00
2023-03-07T17:12:25.025Z,45.02
2023-03-07T17:17:33.261Z,43.30
2023-03-07T17:22:35.671Z,44.20
2023-03-07T17:27:39.240Z,45.24
2023-03-07T17:32:41.675Z,46.41
2023-03-07T17:37:43.416Z,46.18
2023-03-07T17:42:44.932Z,45.56
2023-03-07T17:47:50.480Z,47.82
2023-03-07T17:52:54.940Z,47.76
2023-03-07T17:57:56.394Z,46.31
2023-03-07T18:02:57.903Z,44.33
2023-03-07T18:07:59.396Z,46.42
2023-03-07T18:13:00.898Z,46.57
2023-03-07T18:18:03.771Z,46.82
2023-03-07T18:23:05.243Z,45.14
2023-03-07T18:28:06.760Z,44.97
2023-03-07T18:33:08.221Z,43.42
2023-03-07T18:38:09.689Z,42.97
2023-03-07T18:43:11.185Z,42.65
2023-03-07T18:48:12.669Z,44.51
2023-03-07T18:53:14.131Z,44.14
2023-03-07T18:58:16.569Z,44.33
2023-03-07T19:03:18.079Z,43.38
2023-03-07T19:08:19.531Z,43.44
2023-03-07T19:13:20.986Z,43.60
2023-03-07T19:18:22.444Z,43.26
2023-03-07T19:23:24.323Z,43.87
2023-03-07T19:28:25.782Z,43.15
2023-03-07T19:33:27.236Z,42.72
2023-03-07T19:38:28.712Z,42.25
2023-03-07T19:43:30.202Z,40.17
2023-03-07T19:48:31.925Z,39.19
2023-03-07T19:53:33.384Z,40.29
2023-03-07T19:58:36.580Z,39.83
2023-03-07T20:03:38.297Z,40.17
2023-03-07T20:08:39.767Z,41.21
2023-03-07T20:13:42.065Z,41.39
2023-03-07T20:18:43.552Z,41.42
2023-03-07T20:23:45.396Z,42.67
2023-03-07T20:28:46.866Z,43.23
2023-03-07T20:33:48.481Z,43.62
2023-03-07T20:38:54.266Z,44.17
2023-03-07T20:44:00.741Z,43.14
2023-03-07T20:49:02.663Z,41.86
2023-03-07T20:54:08.460Z,41.99
2023-03-07T20:59:15.404Z,43.51
2023-03-07T21:04:19.873Z,43.86
2023-03-07T21:09:21.366Z,42.17
2023-03-07T21:14:22.908Z,39.62
2023-03-07T21:19:24.380Z,41.06
2023-03-07T21:24:25.898Z,40.15
2023-03-07T21:29:27.360Z,39.97
2023-03-07T21:34:28.823Z,40.68
2023-03-07T21:39:30.289Z,39.82
2023-03-07T21:44:32.888Z,40.00
2023-03-07T21:49:34.380Z,40.78
2023-03-07T21:54:35.846Z,42.60
2023-03-07T21:59:37.877Z,41.53
2023-03-07T22:04:39.334Z,41.16
2023-03-07T22:09:40.800Z,42.77
2023-03-07T22:14:42.250Z,41.85
2023-03-07T22:19:43.712Z,41.56
2023-03-07T22:24:45.176Z,42.69
2023-03-07T22:29:46.650Z,41.53
2023-03-07T22:34:48.110Z,38.43
2023-03-07T22:39:49.581Z,39.01
2023-03-07T22:44:51.051Z,38.58
2023-03-07T22:49:52.512Z,38.67
2023-03-07T22:54:54.377Z,37.96
2023-03-07T22:59:55.833Z,43.50
2023-03-07T23:04:57.306Z,47.21
2023-03-07T23:09:58.778Z,47.20
2023-03-07T23:15:00.244Z,45.81
2023-03-07T23:20:01.743Z,45.55
2023-03-07T23:25:03.310Z,45.53
2023-03-07T23:30:06.081Z,45.53
2023-03-07T23:35:07.788Z,45.80
2023-03-07T23:40:12.192Z,45.00
2023-03-07T23:45:13.681Z,45.10
2023-03-07T23:50:15.386Z,44.05
2023-03-07T23:55:17.035Z,49.53
